San Luis Obispo, California
Current Conditions -  °F | °C
As of 3:56 PM on Friday 24 Oct 2014 (Local Time) from KSBP Reporting Station
Clear Clear  
Wind Chill: 75°   Ceiling: Unl
Heat Index: 75°   Visibility: 10mi
Dew Point: 48°   Wind: 9mph
Humidity: 38%   Direction: 230°SW
Pressure: 29.93"   Gusts: NA
Location:  35.29°N, 120.66°W
Report Text: KSBP 242256Z 23008KT 10SM CLR 24/09 A2993 RMK AO2 SLP134 T02390089
Loading
Personal Weather Stations






























Interactive Weather Map
Tropical Storm Tracking
New forecast layout! Learn more

10-Day Weather Forecast

Advertisements
Track Severe Weather on mobile